createdAt,value
2018-02-09T00:00:17.917Z,69.70
2018-02-09T00:01:17.917Z,68.60
2018-02-09T00:02:17.913Z,66.30
2018-02-09T00:03:17.914Z,74.00
2018-02-09T00:04:17.912Z,66.40
2018-02-09T00:05:17.908Z,70.50
2018-02-09T00:06:17.911Z,67.90
2018-02-09T00:07:17.911Z,65.40
2018-02-09T00:08:17.919Z,70.90
2018-02-09T00:09:17.908Z,71.70
2018-02-09T00:10:17.903Z,69.90
2018-02-09T00:11:17.907Z,66.50
2018-02-09T00:12:17.905Z,70.90
2018-02-09T00:13:17.906Z,73.20
2018-02-09T00:14:17.901Z,67.20
2018-02-09T00:15:17.906Z,66.30
2018-02-09T00:16:17.902Z,62.40
2018-02-09T00:17:17.901Z,69.30
2018-02-09T00:18:17.899Z,66.60
2018-02-09T00:19:17.898Z,65.50
2018-02-09T00:20:17.897Z,68.20
2018-02-09T00:21:17.900Z,69.70
2018-02-09T00:22:17.948Z,71.80
2018-02-09T00:23:17.894Z,65.00
2018-02-09T00:24:17.896Z,65.00
2018-02-09T00:25:17.896Z,67.20
2018-02-09T00:26:17.892Z,65.80
2018-02-09T00:27:17.894Z,66.60
2018-02-09T00:28:17.894Z,67.20
2018-02-09T00:29:17.892Z,70.90
2018-02-09T00:30:17.934Z,68.40
2018-02-09T00:31:17.886Z,63.80
2018-02-09T00:32:17.891Z,67.10
2018-02-09T00:33:17.885Z,65.70
2018-02-09T00:34:17.889Z,71.90
2018-02-09T00:35:17.890Z,71.40
2018-02-09T00:36:17.887Z,67.90
2018-02-09T00:37:17.886Z,67.50
2018-02-09T00:38:17.885Z,69.40
2018-02-09T00:39:17.879Z,68.70
2018-02-09T00:40:17.882Z,70.50
2018-02-09T00:41:17.878Z,74.00
2018-02-09T00:42:17.879Z,71.80
2018-02-09T00:43:17.877Z,71.90
2018-02-09T00:44:17.878Z,70.90
2018-02-09T00:45:17.877Z,70.90
2018-02-09T00:46:17.874Z,69.80
2018-02-09T00:47:17.880Z,71.60
2018-02-09T00:48:17.874Z,73.10
2018-02-09T00:49:17.877Z,72.20
2018-02-09T00:50:17.871Z,74.10
2018-02-09T00:51:17.868Z,69.50
2018-02-09T00:52:18.853Z,71.60
2018-02-09T00:53:17.868Z,71.70
2018-02-09T00:54:17.865Z,75.50
2018-02-09T00:55:17.873Z,72.90
2018-02-09T00:56:17.868Z,75.00
2018-02-09T00:57:17.863Z,75.40
2018-02-09T00:58:17.863Z,77.10
2018-02-09T00:59:17.864Z,73.00
2018-02-09T01:00:17.864Z,80.10
2018-02-09T01:01:17.865Z,76.10
2018-02-09T01:02:17.863Z,76.40
2018-02-09T01:03:17.864Z,78.00
2018-02-09T01:04:17.859Z,80.50
2018-02-09T01:05:17.861Z,75.40
2018-02-09T01:06:17.861Z,79.80
2018-02-09T01:07:17.862Z,77.10
2018-02-09T01:08:17.856Z,78.20
2018-02-09T01:09:17.858Z,82.10
2018-02-09T01:10:17.857Z,80.70
2018-02-09T01:11:17.853Z,79.40
2018-02-09T01:12:17.853Z,81.60
2018-02-09T01:13:17.853Z,77.20
2018-02-09T01:14:17.854Z,84.90
2018-02-09T01:15:17.850Z,80.10
2018-02-09T01:16:17.849Z,77.60
2018-02-09T01:17:17.850Z,83.30
2018-02-09T01:18:17.849Z,77.70
2018-02-09T01:19:17.859Z,76.20
2018-02-09T01:20:17.852Z,83.80
2018-02-09T01:21:17.848Z,78.90
2018-02-09T01:22:17.844Z,79.80
2018-02-09T01:23:17.846Z,75.10
2018-02-09T01:24:17.843Z,76.00
2018-02-09T01:25:17.846Z,75.70
2018-02-09T01:26:17.836Z,76.00
2018-02-09T01:27:17.841Z,74.80
2018-02-09T01:28:17.839Z,73.80
2018-02-09T01:29:17.841Z,75.90
2018-02-09T01:30:17.837Z,76.10
2018-02-09T01:31:18.360Z,73.10
2018-02-09T01:32:17.836Z,70.50
2018-02-09T01:33:17.835Z,72.30
2018-02-09T01:34:17.841Z,67.80
2018-02-09T01:35:17.838Z,74.40
2018-02-09T01:36:17.837Z,69.60
2018-02-09T01:37:17.836Z,69.70
2018-02-09T01:38:17.833Z,71.30
2018-02-09T01:39:17.833Z,73.80
2018-02-09T01:40:17.832Z,68.80
2018-02-09T01:41:17.829Z,71.30
2018-02-09T01:42:17.838Z,68.70
2018-02-09T01:43:17.827Z,70.90
2018-02-09T01:44:17.828Z,72.00
2018-02-09T01:45:17.830Z,66.50
2018-02-09T01:46:17.828Z,69.70
2018-02-09T01:47:17.827Z,69.90
2018-02-09T01:48:17.826Z,64.40
2018-02-09T01:49:17.824Z,71.50
2018-02-09T01:50:17.829Z,66.50
2018-02-09T01:51:17.825Z,68.60
2018-02-09T01:52:17.883Z,66.50
2018-02-09T01:53:17.827Z,68.00
2018-02-09T01:54:17.824Z,67.90
2018-02-09T01:55:17.823Z,66.20
2018-02-09T01:56:17.844Z,67.00
2018-02-09T01:57:17.823Z,65.00
2018-02-09T01:58:17.818Z,70.80
2018-02-09T01:59:17.820Z,67.90
2018-02-09T02:00:17.822Z,67.20
2018-02-09T02:01:17.817Z,68.50
2018-02-09T02:02:17.818Z,67.80
2018-02-09T02:03:17.821Z,67.90
2018-02-09T02:04:17.818Z,67.70
2018-02-09T02:05:17.815Z,70.60
2018-02-09T02:06:17.813Z,69.00
2018-02-09T02:07:17.823Z,66.40
2018-02-09T02:08:17.817Z,68.60
2018-02-09T02:09:17.815Z,65.30
2018-02-09T02:10:17.815Z,70.00
2018-02-09T02:11:17.814Z,66.70
2018-02-09T02:12:17.813Z,69.60
2018-02-09T02:13:17.816Z,70.00
2018-02-09T02:14:17.813Z,68.60
2018-02-09T02:15:17.811Z,72.40
2018-02-09T02:16:17.819Z,66.50
2018-02-09T02:17:17.812Z,67.90
2018-02-09T02:18:17.820Z,65.20
2018-02-09T02:19:17.810Z,67.80
2018-02-09T02:20:17.812Z,65.20
2018-02-09T02:21:17.809Z,65.50
2018-02-09T02:22:17.812Z,66.80
2018-02-09T02:23:17.801Z,67.40
2018-02-09T02:24:17.807Z,69.00
2018-02-09T02:25:17.804Z,65.50
2018-02-09T02:26:17.808Z,69.90
2018-02-09T02:27:17.805Z,69.70
2018-02-09T02:28:17.805Z,68.20
2018-02-09T02:29:17.806Z,70.00
2018-02-09T02:30:17.808Z,69.80
2018-02-09T02:31:17.805Z,69.40
2018-02-09T02:32:17.807Z,68.20
2018-02-09T02:33:17.800Z,71.50
2018-02-09T02:34:17.804Z,72.80
2018-02-09T02:35:17.798Z,67.20
2018-02-09T02:36:17.801Z,66.30
2018-02-09T02:37:17.802Z,66.60
2018-02-09T02:38:17.801Z,68.50
2018-02-09T02:39:17.802Z,68.90
2018-02-09T02:40:17.800Z,67.30
2018-02-09T02:41:17.802Z,71.10
2018-02-09T02:42:17.794Z,72.40
2018-02-09T02:43:17.799Z,66.40
2018-02-09T02:44:17.808Z,67.80
2018-02-09T02:45:17.794Z,67.10
2018-02-09T02:46:17.796Z,66.60
2018-02-09T02:47:17.800Z,67.90
2018-02-09T02:48:17.794Z,69.80
2018-02-09T02:49:17.796Z,68.70
2018-02-09T02:50:17.791Z,68.10
2018-02-09T02:51:17.794Z,67.90
2018-02-09T02:52:17.796Z,66.00
2018-02-09T02:53:17.789Z,69.30
2018-02-09T02:54:17.788Z,68.20
2018-02-09T02:55:17.793Z,68.90
2018-02-09T02:56:17.791Z,64.00
2018-02-09T02:57:17.785Z,68.60
2018-02-09T02:58:17.787Z,65.40
2018-02-09T02:59:17.790Z,64.90
2018-02-09T03:00:17.791Z,66.90
2018-02-09T03:01:17.790Z,65.70
2018-02-09T03:02:17.787Z,65.10
2018-02-09T03:03:17.791Z,69.10
2018-02-09T03:04:17.790Z,67.60
2018-02-09T03:05:17.786Z,67.80
2018-02-09T03:06:17.783Z,70.40
2018-02-09T03:07:17.786Z,66.90
2018-02-09T03:08:17.779Z,63.30
2018-02-09T03:09:17.784Z,67.20
2018-02-09T03:10:17.788Z,66.80
2018-02-09T03:11:17.782Z,68.90
2018-02-09T03:12:17.796Z,69.90
2018-02-09T03:13:17.783Z,68.90
2018-02-09T03:14:17.781Z,65.20
2018-02-09T03:15:17.777Z,67.30
2018-02-09T03:16:17.777Z,67.80
2018-02-09T03:17:17.779Z,70.40
2018-02-09T03:18:17.777Z,69.20
2018-02-09T03:19:17.774Z,68.70
2018-02-09T03:20:17.775Z,64.00
2018-02-09T03:21:17.775Z,69.40
2018-02-09T03:22:17.774Z,69.60
2018-02-09T03:23:17.799Z,65.90
2018-02-09T03:24:17.772Z,66.40
2018-02-09T03:25:17.809Z,70.00
2018-02-09T03:26:17.783Z,71.40
2018-02-09T03:27:17.780Z,71.60
2018-02-09T03:28:17.769Z,64.60
2018-02-09T03:29:17.767Z,71.50
2018-02-09T03:30:17.767Z,66.30
2018-02-09T03:31:17.770Z,69.10
2018-02-09T03:32:17.768Z,67.00
2018-02-09T03:33:17.765Z,70.80
2018-02-09T03:34:17.767Z,68.60
2018-02-09T03:35:17.761Z,70.90
2018-02-09T03:36:17.764Z,67.80
2018-02-09T03:37:17.809Z,68.30
2018-02-09T03:38:17.764Z,65.20
2018-02-09T03:39:17.759Z,68.60
2018-02-09T03:40:17.759Z,70.10
2018-02-09T03:41:17.767Z,68.30
2018-02-09T03:42:17.761Z,68.00
2018-02-09T03:43:17.757Z,68.60
2018-02-09T03:44:17.759Z,66.90
2018-02-09T03:45:17.759Z,68.50
2018-02-09T03:46:17.758Z,65.10
2018-02-09T03:47:17.756Z,68.80
2018-02-09T03:48:17.757Z,66.50
2018-02-09T03:49:17.757Z,77.30
2018-02-09T03:50:17.755Z,71.30
2018-02-09T03:51:17.753Z,65.90
2018-02-09T03:52:17.753Z,67.40
2018-02-09T03:53:17.754Z,65.00
2018-02-09T03:54:17.751Z,67.20
2018-02-09T03:55:17.756Z,67.60
2018-02-09T03:56:17.747Z,67.00
2018-02-09T03:57:17.749Z,69.90
2018-02-09T03:58:17.750Z,65.90
2018-02-09T03:59:17.747Z,66.90
2018-02-09T04:00:17.749Z,71.70
2018-02-09T04:01:17.747Z,66.50
2018-02-09T04:02:17.747Z,66.90
2018-02-09T04:03:17.746Z,66.00
2018-02-09T04:04:17.744Z,66.00
2018-02-09T04:05:17.738Z,67.60
2018-02-09T04:06:17.741Z,64.00
2018-02-09T04:07:17.745Z,64.60
2018-02-09T04:08:17.747Z,62.30
2018-02-09T04:09:17.739Z,69.00
2018-02-09T04:10:17.736Z,70.60
2018-02-09T04:11:17.745Z,67.80
2018-02-09T04:12:17.740Z,69.00
2018-02-09T04:13:17.744Z,63.50
2018-02-09T04:14:17.740Z,63.90
2018-02-09T04:15:17.736Z,63.60
2018-02-09T04:16:17.740Z,65.80
2018-02-09T04:17:17.736Z,66.40
2018-02-09T04:18:17.741Z,65.40
2018-02-09T04:19:17.738Z,65.40
2018-02-09T04:20:17.731Z,68.10
2018-02-09T04:21:17.738Z,69.80
2018-02-09T04:22:17.736Z,67.00
2018-02-09T04:23:17.741Z,66.00
2018-02-09T04:24:17.733Z,68.00
2018-02-09T04:25:17.735Z,68.70
2018-02-09T04:26:17.735Z,66.90
2018-02-09T04:27:17.730Z,67.20
2018-02-09T04:28:17.741Z,68.90
2018-02-09T04:29:17.730Z,67.60
2018-02-09T04:30:17.733Z,66.30
2018-02-09T04:31:17.736Z,67.40
2018-02-09T04:32:17.729Z,70.00
2018-02-09T04:33:17.724Z,70.30
2018-02-09T04:34:17.731Z,66.60
2018-02-09T04:35:17.730Z,68.60
2018-02-09T04:36:17.731Z,67.50
2018-02-09T04:37:17.729Z,67.10
2018-02-09T04:38:17.726Z,64.80
2018-02-09T04:39:17.731Z,64.70
2018-02-09T04:40:17.730Z,64.90
2018-02-09T04:41:17.725Z,67.20
2018-02-09T04:42:17.725Z,69.00
2018-02-09T04:43:17.731Z,71.80
2018-02-09T04:44:17.724Z,69.60
2018-02-09T04:45:17.724Z,66.10
2018-02-09T04:46:17.724Z,67.10
2018-02-09T04:47:17.723Z,69.10
2018-02-09T04:48:17.725Z,65.90
2018-02-09T04:49:17.737Z,65.20
2018-02-09T04:50:17.728Z,70.00
2018-02-09T04:51:17.720Z,64.50
2018-02-09T04:52:17.721Z,66.60
2018-02-09T04:53:17.722Z,68.80
2018-02-09T04:54:17.727Z,69.90
2018-02-09T04:55:17.719Z,66.90
2018-02-09T04:56:17.718Z,65.40
2018-02-09T04:57:17.723Z,73.60
2018-02-09T04:58:17.724Z,66.60
2018-02-09T04:59:17.717Z,70.90
2018-02-09T05:00:17.722Z,65.20
2018-02-09T05:01:17.719Z,69.00
2018-02-09T05:02:17.720Z,68.90
2018-02-09T05:03:17.716Z,66.40
2018-02-09T05:04:17.715Z,62.80
2018-02-09T05:05:17.718Z,66.80
2018-02-09T05:06:17.719Z,69.30
2018-02-09T05:07:17.715Z,71.90
2018-02-09T05:08:17.713Z,66.60
2018-02-09T05:09:17.721Z,67.10
2018-02-09T05:10:17.718Z,70.00
2018-02-09T05:11:17.718Z,65.20
2018-02-09T05:12:17.716Z,70.40
2018-02-09T05:13:17.718Z,68.40
2018-02-09T05:14:17.713Z,75.50
2018-02-09T05:15:17.716Z,68.20
2018-02-09T05:16:17.713Z,68.60
2018-02-09T05:17:17.727Z,68.10
2018-02-09T05:18:17.712Z,65.70
2018-02-09T05:19:17.710Z,63.50
2018-02-09T05:20:17.711Z,64.90
2018-02-09T05:21:17.719Z,62.40
2018-02-09T05:22:17.715Z,72.70
2018-02-09T05:23:17.713Z,71.50
2018-02-09T05:24:17.724Z,65.90
2018-02-09T05:25:17.711Z,68.10
2018-02-09T05:26:17.713Z,63.60
2018-02-09T05:27:17.711Z,65.40
2018-02-09T05:28:17.716Z,68.40
2018-02-09T05:29:17.720Z,65.40
2018-02-09T05:30:17.712Z,67.50
2018-02-09T05:31:17.720Z,66.30
2018-02-09T05:32:17.716Z,68.30
2018-02-09T05:33:17.709Z,66.50
2018-02-09T05:34:17.703Z,65.80
2018-02-09T05:35:17.708Z,71.10
2018-02-09T05:36:17.712Z,71.80
2018-02-09T05:37:17.707Z,67.40
2018-02-09T05:38:17.710Z,66.90
2018-02-09T05:39:17.708Z,70.60
2018-02-09T05:40:17.709Z,73.90
2018-02-09T05:41:17.728Z,67.10
2018-02-09T05:42:17.716Z,64.40
2018-02-09T05:43:17.711Z,77.50
2018-02-09T05:44:17.710Z,68.10
2018-02-09T05:45:17.706Z,69.40
2018-02-09T05:46:17.711Z,67.40
2018-02-09T05:47:17.707Z,62.10
2018-02-09T05:48:17.715Z,66.10
2018-02-09T05:49:17.707Z,67.50
2018-02-09T05:50:19.044Z,68.30
2018-02-09T05:51:17.706Z,69.90
2018-02-09T05:52:17.717Z,67.10
2018-02-09T05:53:17.710Z,70.70
2018-02-09T05:54:17.710Z,68.30
2018-02-09T05:55:17.730Z,68.60
2018-02-09T05:56:17.716Z,73.70
2018-02-09T05:57:17.711Z,87.10
2018-02-09T05:58:17.714Z,74.60
2018-02-09T05:59:17.713Z,68.30
2018-02-09T06:00:17.706Z,65.50
2018-02-09T06:01:17.708Z,70.10
2018-02-09T06:02:17.709Z,69.00
2018-02-09T06:03:17.707Z,65.50
2018-02-09T06:04:17.706Z,72.10
2018-02-09T06:05:17.704Z,65.70
2018-02-09T06:06:17.706Z,68.50
2018-02-09T06:07:17.727Z,77.90
2018-02-09T06:08:17.750Z,69.90
2018-02-09T06:09:17.720Z,67.60
2018-02-09T06:10:17.705Z,88.70
2018-02-09T06:11:17.710Z,76.70
2018-02-09T06:12:17.707Z,75.30
2018-02-09T06:13:17.709Z,70.60
2018-02-09T06:14:17.708Z,75.40
2018-02-09T06:15:17.709Z,73.80
2018-02-09T06:16:17.712Z,69.20
2018-02-09T06:17:17.709Z,69.90
2018-02-09T06:18:17.704Z,71.70
2018-02-09T06:19:17.709Z,99.40
2018-02-09T06:20:17.713Z,74.50
2018-02-09T06:21:17.711Z,71.00
2018-02-09T06:22:17.712Z,71.70
2018-02-09T06:23:17.707Z,76.90
2018-02-09T06:24:17.710Z,67.30
2018-02-09T06:25:17.708Z,73.70
2018-02-09T06:26:17.740Z,85.20
2018-02-09T06:27:17.711Z,85.10
2018-02-09T06:28:17.711Z,75.50
2018-02-09T06:29:17.709Z,68.40
2018-02-09T06:30:17.717Z,66.00
2018-02-09T06:31:17.707Z,81.20
2018-02-09T06:32:17.712Z,68.20
2018-02-09T06:33:17.708Z,71.60
2018-02-09T06:34:17.713Z,66.10
2018-02-09T06:35:17.708Z,71.80
2018-02-09T06:36:17.710Z,72.60
2018-02-09T06:37:17.712Z,73.10
2018-02-09T06:38:17.712Z,68.20
2018-02-09T06:39:17.710Z,96.10
2018-02-09T06:40:17.710Z,103.40
2018-02-09T06:41:17.713Z,66.40
2018-02-09T06:42:17.712Z,74.60
2018-02-09T06:43:17.711Z,80.20
2018-02-09T06:44:17.716Z,77.30
2018-02-09T06:45:17.710Z,72.20
2018-02-09T06:46:17.710Z,71.70
2018-02-09T06:47:17.714Z,96.20
2018-02-09T06:48:17.715Z,73.40
2018-02-09T06:49:17.710Z,71.40
2018-02-09T06:50:17.718Z,74.40
2018-02-09T06:51:17.713Z,76.20
2018-02-09T06:52:17.731Z,79.90
2018-02-09T06:53:17.710Z,67.90
2018-02-09T06:54:17.714Z,74.40
2018-02-09T06:55:17.732Z,77.30
2018-02-09T06:56:17.715Z,73.50
2018-02-09T06:57:17.711Z,75.30
2018-02-09T06:58:17.716Z,80.30
2018-02-09T06:59:17.738Z,86.40
2018-02-09T07:00:17.711Z,71.80
2018-02-09T07:01:17.717Z,70.40
2018-02-09T07:02:17.712Z,71.80
2018-02-09T07:03:17.711Z,74.70
2018-02-09T07:04:17.712Z,71.10
2018-02-09T07:05:17.715Z,69.70
2018-02-09T07:06:17.715Z,69.90
2018-02-09T07:07:17.711Z,69.90
2018-02-09T07:08:17.711Z,68.60
2018-02-09T07:09:17.717Z,70.20
2018-02-09T07:10:17.712Z,69.50
2018-02-09T07:11:17.721Z,68.80
2018-02-09T07:12:17.713Z,66.40
2018-02-09T07:13:17.715Z,87.80
2018-02-09T07:14:17.711Z,68.50
2018-02-09T07:15:17.738Z,67.10
2018-02-09T07:16:17.714Z,67.20
2018-02-09T07:17:17.712Z,69.10
2018-02-09T07:18:17.716Z,66.50
2018-02-09T07:19:17.712Z,70.00
2018-02-09T07:20:17.716Z,70.20
2018-02-09T07:21:17.710Z,69.00
2018-02-09T07:22:17.713Z,65.90
2018-02-09T07:23:17.710Z,72.90
2018-02-09T07:24:17.718Z,66.00
2018-02-09T07:25:17.717Z,71.50
2018-02-09T07:26:17.711Z,68.40
2018-02-09T07:27:17.710Z,68.10
2018-02-09T07:28:17.711Z,66.50
2018-02-09T07:29:17.710Z,68.80
2018-02-09T07:30:17.711Z,70.10
2018-02-09T07:31:17.709Z,68.30
2018-02-09T07:32:17.708Z,67.70
2018-02-09T07:33:17.712Z,72.10
2018-02-09T07:34:17.707Z,69.10
2018-02-09T07:35:17.712Z,68.90
2018-02-09T07:36:17.708Z,66.30
2018-02-09T07:37:17.714Z,69.80
2018-02-09T07:38:17.709Z,75.30
2018-02-09T07:39:17.712Z,71.00
2018-02-09T07:40:17.711Z,68.80
2018-02-09T07:41:17.706Z,73.80
2018-02-09T07:42:17.704Z,70.20
2018-02-09T07:43:17.712Z,71.80
2018-02-09T07:44:17.714Z,72.90
2018-02-09T07:45:17.703Z,74.80
2018-02-09T07:46:17.704Z,69.00
2018-02-09T07:47:17.710Z,70.80
2018-02-09T07:48:17.732Z,70.70
2018-02-09T07:49:17.782Z,71.00
2018-02-09T07:50:17.703Z,71.10
2018-02-09T07:51:17.706Z,71.80
2018-02-09T07:52:17.707Z,69.10
2018-02-09T07:53:17.708Z,72.90
2018-02-09T07:54:17.698Z,70.10
2018-02-09T07:55:17.711Z,70.70
2018-02-09T07:56:17.701Z,70.40
2018-02-09T07:57:17.704Z,68.10
2018-02-09T07:58:17.706Z,69.10
2018-02-09T07:59:17.696Z,70.80
2018-02-09T08:00:17.703Z,70.30
2018-02-09T08:01:17.706Z,71.60
2018-02-09T08:02:17.729Z,77.20
2018-02-09T08:03:17.700Z,82.40
2018-02-09T08:04:17.701Z,69.90
2018-02-09T08:05:17.700Z,69.30
2018-02-09T08:06:17.703Z,70.00
2018-02-09T08:07:17.702Z,67.60
2018-02-09T08:08:17.700Z,79.70
2018-02-09T08:09:17.708Z,68.20
2018-02-09T08:10:17.700Z,74.80
2018-02-09T08:11:17.705Z,66.90
2018-02-09T08:12:17.703Z,65.70
2018-02-09T08:13:17.700Z,68.30
2018-02-09T08:14:17.706Z,65.90
2018-02-09T08:15:17.702Z,66.90
2018-02-09T08:16:17.709Z,67.80
2018-02-09T08:17:17.701Z,72.10
2018-02-09T08:18:17.706Z,66.70
2018-02-09T08:19:17.702Z,67.90
2018-02-09T08:20:17.753Z,68.30
2018-02-09T08:21:17.701Z,69.00
2018-02-09T08:22:17.704Z,65.70
2018-02-09T08:23:17.701Z,71.40
2018-02-09T08:24:17.707Z,70.40
2018-02-09T08:25:17.704Z,65.80
2018-02-09T08:26:17.707Z,64.10
2018-02-09T08:27:17.706Z,64.90
2018-02-09T08:28:17.702Z,68.70
2018-02-09T08:29:17.708Z,66.60
2018-02-09T08:30:17.712Z,63.10
2018-02-09T08:31:17.709Z,63.90
2018-02-09T08:32:17.705Z,65.80
2018-02-09T08:33:17.709Z,66.40
2018-02-09T08:34:17.707Z,62.60
2018-02-09T08:35:17.712Z,57.40
2018-02-09T08:36:17.714Z,65.00
2018-02-09T08:37:17.717Z,61.20
2018-02-09T08:38:17.725Z,59.30
2018-02-09T08:39:17.722Z,61.20
2018-02-09T08:40:17.719Z,57.00
2018-02-09T08:41:17.727Z,56.30
2018-02-09T08:42:17.732Z,56.60
2018-02-09T08:43:17.736Z,53.70
2018-02-09T08:44:17.735Z,63.60
2018-02-09T08:45:17.743Z,57.70
2018-02-09T08:46:17.750Z,58.10
2018-02-09T08:47:17.749Z,54.90
2018-02-09T08:48:17.756Z,55.80
2018-02-09T08:49:17.763Z,53.60
2018-02-09T08:50:17.782Z,50.10
2018-02-09T08:51:17.788Z,51.80
2018-02-09T08:52:17.780Z,56.80
2018-02-09T08:53:17.786Z,52.30
2018-02-09T08:54:17.791Z,58.00
2018-02-09T08:55:17.792Z,52.40
2018-02-09T08:56:17.801Z,49.00
2018-02-09T08:57:17.818Z,52.10
2018-02-09T08:58:17.940Z,56.90
2018-02-09T08:59:17.870Z,49.10
2018-02-09T09:00:17.895Z,51.80
2018-02-09T09:01:17.834Z,51.90
2018-02-09T09:02:17.847Z,53.00
2018-02-09T09:03:17.850Z,50.70
2018-02-09T09:04:17.861Z,50.20
2018-02-09T09:05:17.870Z,53.40
2018-02-09T09:06:17.875Z,49.10
2018-02-09T09:07:17.877Z,49.10
2018-02-09T09:08:17.890Z,47.10
2018-02-09T09:09:17.904Z,49.60
2018-02-09T09:10:17.900Z,49.00
2018-02-09T09:11:18.444Z,49.50
2018-02-09T09:12:17.926Z,48.80
2018-02-09T09:13:17.925Z,47.00
2018-02-09T09:14:19.059Z,50.30
2018-02-09T09:15:17.937Z,48.90
2018-02-09T09:16:17.948Z,49.40
2018-02-09T09:17:17.959Z,50.90
2018-02-09T09:18:17.969Z,48.70
2018-02-09T09:19:17.975Z,53.70
2018-02-09T09:20:17.978Z,50.70
2018-02-09T09:21:17.992Z,49.20
2018-02-09T09:22:17.995Z,47.40
2018-02-09T09:23:18.006Z,48.30
2018-02-09T09:24:18.011Z,47.30
2018-02-09T09:25:18.027Z,50.20
2018-02-09T09:26:18.027Z,48.20
2018-02-09T09:27:18.037Z,51.10
2018-02-09T09:28:18.043Z,63.20
2018-02-09T09:29:18.055Z,50.70
2018-02-09T09:30:18.059Z,49.50
2018-02-09T09:31:18.072Z,52.20
2018-02-09T09:32:18.080Z,49.50
2018-02-09T09:33:18.086Z,49.10
2018-02-09T09:34:18.104Z,49.00
2018-02-09T09:35:18.105Z,49.40
2018-02-09T09:36:18.111Z,50.30
2018-02-09T09:37:18.128Z,46.20
2018-02-09T09:38:18.140Z,55.20
2018-02-09T09:39:18.139Z,52.20
2018-02-09T09:40:18.161Z,50.90
2018-02-09T09:41:18.159Z,46.70
2018-02-09T09:42:18.166Z,70.40
2018-02-09T09:43:18.172Z,56.20
2018-02-09T09:44:18.175Z,59.70
2018-02-09T09:45:18.193Z,58.70
2018-02-09T09:46:18.200Z,54.90
2018-02-09T09:47:18.207Z,59.60
2018-02-09T09:48:18.215Z,53.00
2018-02-09T09:49:18.225Z,48.30
2018-02-09T09:50:18.237Z,52.50
2018-02-09T09:51:18.240Z,49.00
2018-02-09T09:52:18.252Z,48.40
2018-02-09T09:53:18.261Z,48.10
2018-02-09T09:54:18.269Z,51.50
2018-02-09T09:55:18.275Z,50.10
2018-02-09T09:56:18.293Z,52.10
2018-02-09T09:57:18.296Z,52.00
2018-02-09T09:58:18.304Z,48.10
2018-02-09T09:59:18.317Z,52.30
2018-02-09T10:00:18.328Z,65.30
2018-02-09T10:01:18.334Z,50.40
2018-02-09T10:02:18.340Z,67.70
2018-02-09T10:03:18.352Z,51.10
2018-02-09T10:04:18.360Z,53.30
2018-02-09T10:05:18.365Z,49.90
2018-02-09T10:06:18.381Z,50.80
2018-02-09T10:07:18.385Z,48.50
2018-02-09T10:08:18.399Z,49.00
2018-02-09T10:09:18.404Z,56.60
2018-02-09T10:10:18.417Z,61.20
2018-02-09T10:11:18.423Z,57.20
2018-02-09T10:12:18.432Z,51.90
2018-02-09T10:13:18.445Z,49.90
2018-02-09T10:14:18.450Z,51.50
2018-02-09T10:15:18.455Z,51.60
2018-02-09T10:16:18.465Z,56.40
2018-02-09T10:17:18.475Z,52.00
2018-02-09T10:18:18.488Z,51.20
2018-02-09T10:19:18.488Z,49.60
2018-02-09T10:20:18.500Z,54.30
2018-02-09T10:21:18.512Z,55.50
2018-02-09T10:22:18.536Z,65.30
2018-02-09T10:23:18.526Z,56.60
2018-02-09T10:24:18.535Z,51.70
2018-02-09T10:25:18.544Z,51.10
2018-02-09T10:26:18.553Z,51.30
2018-02-09T10:27:18.558Z,55.80
2018-02-09T10:28:18.564Z,58.60
2018-02-09T10:29:18.580Z,58.40
2018-02-09T10:30:18.585Z,51.90
2018-02-09T10:31:18.601Z,52.80
2018-02-09T10:32:18.597Z,53.90
2018-02-09T10:33:18.604Z,64.90
2018-02-09T10:34:18.614Z,74.40
2018-02-09T10:35:18.631Z,53.00
2018-02-09T10:36:18.631Z,55.50
2018-02-09T10:37:18.643Z,49.80
2018-02-09T10:38:18.645Z,49.90
2018-02-09T10:39:18.653Z,50.80
2018-02-09T10:40:18.660Z,52.20
2018-02-09T10:41:18.671Z,51.20
2018-02-09T10:42:18.679Z,57.00
2018-02-09T10:43:18.684Z,60.20
2018-02-09T10:44:18.692Z,56.00
2018-02-09T10:45:18.700Z,69.40
2018-02-09T10:46:18.707Z,51.80
2018-02-09T10:47:18.722Z,60.20
2018-02-09T10:48:18.728Z,54.30
2018-02-09T10:49:18.732Z,60.70
2018-02-09T10:50:18.741Z,53.20
2018-02-09T10:51:18.757Z,52.60
2018-02-09T10:52:18.763Z,60.90
2018-02-09T10:53:18.767Z,56.90
2018-02-09T10:54:19.470Z,52.90
2018-02-09T10:55:18.788Z,56.40
2018-02-09T10:56:18.795Z,52.60
2018-02-09T10:57:18.797Z,53.90
2018-02-09T10:58:18.807Z,59.20
2018-02-09T10:59:18.817Z,57.50
2018-02-09T11:00:18.877Z,59.30
2018-02-09T11:01:18.832Z,64.60
2018-02-09T11:02:18.838Z,54.10
2018-02-09T11:03:18.846Z,67.50
2018-02-09T11:04:18.860Z,54.90
2018-02-09T11:05:18.861Z,55.40
2018-02-09T11:06:18.872Z,52.60
2018-02-09T11:07:18.877Z,57.50
2018-02-09T11:08:18.894Z,63.10
2018-02-09T11:09:18.893Z,56.50
2018-02-09T11:10:18.905Z,57.10
2018-02-09T11:11:18.908Z,54.70
2018-02-09T11:12:18.920Z,56.90
2018-02-09T11:13:18.924Z,56.10
2018-02-09T11:14:18.935Z,67.20
2018-02-09T11:15:18.941Z,52.00
2018-02-09T11:16:18.946Z,59.00
2018-02-09T11:17:19.002Z,52.00
2018-02-09T11:18:18.964Z,52.30
2018-02-09T11:19:18.974Z,56.40
2018-02-09T11:20:18.979Z,57.40
2018-02-09T11:21:18.986Z,67.90
2018-02-09T11:22:18.991Z,60.20
2018-02-09T11:23:19.987Z,54.70
2018-02-09T11:24:19.003Z,52.30
2018-02-09T11:25:19.014Z,50.70
2018-02-09T11:26:19.017Z,55.50
2018-02-09T11:27:19.030Z,64.30
2018-02-09T11:28:19.032Z,73.20
2018-02-09T11:29:19.042Z,60.00
2018-02-09T11:30:19.049Z,58.20
2018-02-09T11:31:19.058Z,54.60
2018-02-09T11:32:19.067Z,58.90
2018-02-09T11:33:19.067Z,58.80
2018-02-09T11:34:19.075Z,59.90
2018-02-09T11:35:19.126Z,51.80
2018-02-09T11:36:19.088Z,64.70
2018-02-09T11:37:19.091Z,57.60
2018-02-09T11:38:19.098Z,53.50
2018-02-09T11:39:19.106Z,61.20
2018-02-09T11:40:19.118Z,63.20
2018-02-09T11:41:19.125Z,53.20
2018-02-09T11:42:19.129Z,90.80
2018-02-09T11:43:19.139Z,57.80
2018-02-09T11:44:19.154Z,57.80
2018-02-09T11:45:19.150Z,59.80
2018-02-09T11:46:19.153Z,57.70
2018-02-09T11:47:19.162Z,56.50
2018-02-09T11:48:19.170Z,75.00
2018-02-09T11:49:19.176Z,58.00
2018-02-09T11:50:19.181Z,55.40
2018-02-09T11:51:19.200Z,57.00
2018-02-09T11:52:19.194Z,71.80
2018-02-09T11:53:19.197Z,78.00
2018-02-09T11:54:19.203Z,64.90
2018-02-09T11:55:19.211Z,51.00
2018-02-09T11:56:19.218Z,56.50
2018-02-09T11:57:19.220Z,59.90
2018-02-09T11:58:19.229Z,77.40
2018-02-09T11:59:19.239Z,56.50
2018-02-09T12:00:19.247Z,56.80
2018-02-09T12:01:19.246Z,55.90
2018-02-09T12:02:19.253Z,55.30
2018-02-09T12:03:19.262Z,50.00
2018-02-09T12:04:19.268Z,61.70
2018-02-09T12:05:19.286Z,51.30
2018-02-09T12:06:19.284Z,58.50
2018-02-09T12:07:19.286Z,51.40
2018-02-09T12:08:19.287Z,51.80
2018-02-09T12:09:19.297Z,60.80
2018-02-09T12:10:19.297Z,64.30
2018-02-09T12:11:19.308Z,60.60
2018-02-09T12:12:19.316Z,60.00
2018-02-09T12:13:19.334Z,89.30
2018-02-09T12:14:19.323Z,54.90
2018-02-09T12:15:19.336Z,55.30
2018-02-09T12:16:19.336Z,55.50
2018-02-09T12:17:19.335Z,59.10
2018-02-09T12:18:19.345Z,54.80
2018-02-09T12:19:19.358Z,54.80
2018-02-09T12:20:19.354Z,53.30
2018-02-09T12:21:19.357Z,58.80
2018-02-09T12:22:19.367Z,56.80
2018-02-09T12:23:19.371Z,61.80
2018-02-09T12:24:19.375Z,68.60
2018-02-09T12:25:19.393Z,56.40
2018-02-09T12:26:19.383Z,56.90
2018-02-09T12:27:19.386Z,53.70
2018-02-09T12:28:19.391Z,57.90
2018-02-09T12:29:19.398Z,56.60
2018-02-09T12:30:19.401Z,59.90
2018-02-09T12:31:19.411Z,92.90
2018-02-09T12:32:19.409Z,62.90
2018-02-09T12:33:19.430Z,55.70
2018-02-09T12:34:19.410Z,57.10
2018-02-09T12:35:19.426Z,61.50
2018-02-09T12:36:19.426Z,58.90
2018-02-09T12:37:19.429Z,68.80
2018-02-09T12:38:19.436Z,59.90
2018-02-09T12:39:19.440Z,60.40
2018-02-09T12:40:19.445Z,63.50
2018-02-09T12:41:19.448Z,64.70
2018-02-09T12:42:19.447Z,62.50
2018-02-09T12:43:19.512Z,61.10
2018-02-09T12:44:19.457Z,67.00
2018-02-09T12:45:19.460Z,77.40
2018-02-09T12:46:19.461Z,68.90
2018-02-09T12:47:19.472Z,71.50
2018-02-09T12:48:19.475Z,69.50
2018-02-09T12:49:19.476Z,70.40
2018-02-09T12:50:19.482Z,66.90
2018-02-09T12:51:19.486Z,69.80
2018-02-09T12:52:19.487Z,70.70